createdAt,value
2016-11-29T00:00:09.897Z,0
2016-11-29T00:01:09.923Z,0
2016-11-29T00:02:10.031Z,0
2016-11-29T00:03:10.051Z,0
2016-11-29T00:04:10.137Z,0
2016-11-29T00:05:10.157Z,0
2016-11-29T00:06:10.201Z,0
2016-11-29T00:07:10.300Z,0
2016-11-29T00:08:10.323Z,0
2016-11-29T00:09:10.387Z,0
2016-11-29T00:10:10.445Z,0
2016-11-29T00:11:10.523Z,0
2016-11-29T00:12:10.560Z,0
2016-11-29T00:13:10.616Z,0
2016-11-29T00:14:10.649Z,0
2016-11-29T00:15:10.747Z,0
2016-11-29T00:16:10.764Z,0
2016-11-29T00:17:10.831Z,0
2016-11-29T00:18:10.894Z,0
2016-11-29T00:19:10.940Z,0
2016-11-29T00:20:11.013Z,0
2016-11-29T00:21:11.060Z,0
2016-11-29T00:22:11.113Z,0
2016-11-29T00:23:11.178Z,0
2016-11-29T00:24:11.228Z,0
2016-11-29T00:25:11.301Z,0
2016-11-29T00:26:11.366Z,0
2016-11-29T00:27:11.390Z,0
2016-11-29T00:28:11.446Z,0
2016-11-29T00:29:11.523Z,0
2016-11-29T00:30:11.561Z,0
2016-11-29T00:31:11.619Z,0
2016-11-29T00:32:11.692Z,0
2016-11-29T00:33:11.724Z,0
2016-11-29T00:34:11.765Z,0
2016-11-29T00:35:11.835Z,0
2016-11-29T00:36:11.886Z,0
2016-11-29T00:37:11.948Z,0
2016-11-29T00:38:11.991Z,0
2016-11-29T00:39:12.065Z,0
2016-11-29T00:40:12.129Z,0
2016-11-29T00:41:12.173Z,0
2016-11-29T00:42:12.249Z,0
2016-11-29T00:43:12.305Z,0
2016-11-29T00:44:12.367Z,0
2016-11-29T00:45:12.423Z,0
2016-11-29T00:46:12.487Z,0
2016-11-29T00:47:12.495Z,0
2016-11-29T00:48:12.572Z,0
2016-11-29T00:49:12.950Z,0
2016-11-29T00:50:12.668Z,0
2016-11-29T00:51:12.756Z,0
2016-11-29T00:52:12.798Z,0
2016-11-29T00:53:12.873Z,0
2016-11-29T00:54:12.889Z,0
2016-11-29T00:55:12.963Z,0
2016-11-29T00:56:13.035Z,0
2016-11-29T00:57:13.072Z,0
2016-11-29T00:58:13.134Z,0
2016-11-29T00:59:13.197Z,0
2016-11-29T01:00:13.243Z,0
2016-11-29T01:01:13.292Z,0
2016-11-29T01:02:13.359Z,0
2016-11-29T01:03:13.406Z,0
2016-11-29T01:04:13.826Z,0
2016-11-29T01:05:13.523Z,0
2016-11-29T01:06:13.561Z,0
2016-11-29T01:07:13.646Z,0
2016-11-29T01:08:13.678Z,0
2016-11-29T01:09:13.734Z,0
2016-11-29T01:10:13.782Z,0
2016-11-29T01:11:13.874Z,0
2016-11-29T01:12:13.923Z,0
2016-11-29T01:13:13.970Z,0
2016-11-29T01:14:14.011Z,0
2016-11-29T01:15:14.073Z,0
2016-11-29T01:16:14.142Z,0
2016-11-29T01:17:14.174Z,0
2016-11-29T01:18:14.279Z,0
2016-11-29T01:19:14.290Z,0
2016-11-29T01:20:14.364Z,0
2016-11-29T01:21:14.405Z,0
2016-11-29T01:22:14.465Z,0
2016-11-29T01:23:14.538Z,0
2016-11-29T01:24:14.609Z,0
2016-11-29T01:25:14.640Z,0
2016-11-29T01:26:14.708Z,0
2016-11-29T01:27:14.768Z,0
2016-11-29T01:28:14.812Z,0
2016-11-29T01:29:14.831Z,0
2016-11-29T01:30:15.228Z,0
2016-11-29T01:31:14.967Z,0
2016-11-29T01:32:15.030Z,0
2016-11-29T01:33:15.053Z,0
2016-11-29T01:34:15.115Z,0
2016-11-29T01:35:15.220Z,0
2016-11-29T01:36:15.236Z,0
2016-11-29T01:37:15.311Z,0
2016-11-29T01:38:15.358Z,0
2016-11-29T01:39:15.437Z,0
2016-11-29T01:40:15.452Z,0
2016-11-29T01:41:15.502Z,0
2016-11-29T01:42:15.576Z,0
2016-11-29T01:43:15.653Z,0
2016-11-29T01:44:15.680Z,0
2016-11-29T01:45:15.741Z,0
2016-11-29T01:46:15.803Z,0
2016-11-29T01:47:15.856Z,0
2016-11-29T01:48:15.902Z,0
2016-11-29T01:49:15.979Z,0
2016-11-29T01:50:16.031Z,0
2016-11-29T01:51:16.067Z,0
2016-11-29T01:52:16.137Z,0
2016-11-29T01:53:16.186Z,0
2016-11-29T01:54:16.245Z,0
2016-11-29T01:55:16.312Z,0
2016-11-29T01:56:16.370Z,0
2016-11-29T01:57:16.390Z,0
2016-11-29T01:58:16.491Z,0
2016-11-29T01:59:16.532Z,0
2016-11-29T02:00:16.574Z,0
2016-11-29T02:01:16.641Z,0
2016-11-29T02:02:16.670Z,0
2016-11-29T02:03:17.056Z,0
2016-11-29T02:04:16.817Z,0
2016-11-29T02:05:16.885Z,0
2016-11-29T02:06:16.917Z,0
2016-11-29T02:07:16.948Z,0
2016-11-29T02:08:17.049Z,0
2016-11-29T02:09:17.076Z,0
2016-11-29T02:10:17.129Z,0
2016-11-29T02:11:17.208Z,0
2016-11-29T02:12:17.255Z,0
2016-11-29T02:13:17.318Z,0
2016-11-29T02:14:17.372Z,0
2016-11-29T02:15:17.404Z,0
2016-11-29T02:16:17.565Z,0
2016-11-29T02:17:17.524Z,0
2016-11-29T02:18:17.581Z,0
2016-11-29T02:19:17.665Z,0
2016-11-29T02:20:17.685Z,0
2016-11-29T02:21:17.737Z,0
2016-11-29T02:22:17.820Z,0
2016-11-29T02:23:18.175Z,0
2016-11-29T02:24:17.942Z,0
2016-11-29T02:25:17.977Z,0
2016-11-29T02:26:18.021Z,0
2016-11-29T02:27:18.094Z,0
2016-11-29T02:28:18.125Z,0
2016-11-29T02:29:18.187Z,0
2016-11-29T02:30:18.259Z,0
2016-11-29T02:31:18.317Z,0
2016-11-29T02:32:18.378Z,0
2016-11-29T02:33:18.418Z,0
2016-11-29T02:34:18.477Z,0
2016-11-29T02:35:18.538Z,0
2016-11-29T02:36:18.593Z,0
2016-11-29T02:37:18.629Z,0
2016-11-29T02:38:18.712Z,0
2016-11-29T02:39:18.743Z,0
2016-11-29T02:40:18.794Z,0
2016-11-29T02:41:18.870Z,0
2016-11-29T02:42:18.898Z,0
2016-11-29T02:43:18.975Z,0
2016-11-29T02:44:19.035Z,0
2016-11-29T02:45:19.100Z,0
2016-11-29T02:46:19.144Z,0
2016-11-29T02:47:19.207Z,0
2016-11-29T02:48:19.228Z,0
2016-11-29T02:49:19.334Z,0
2016-11-29T02:50:19.653Z,0
2016-11-29T02:51:19.420Z,0
2016-11-29T02:52:19.465Z,0
2016-11-29T02:53:19.545Z,0
2016-11-29T02:54:19.572Z,0
2016-11-29T02:55:19.636Z,0
2016-11-29T02:56:19.701Z,0
2016-11-29T02:57:19.762Z,0
2016-11-29T02:58:19.829Z,0
2016-11-29T02:59:19.865Z,0
2016-11-29T03:00:19.929Z,0
2016-11-29T03:01:20.020Z,0
2016-11-29T03:02:20.048Z,0
2016-11-29T03:03:20.106Z,0
2016-11-29T03:04:20.142Z,0
2016-11-29T03:05:20.196Z,0
2016-11-29T03:06:20.247Z,0
2016-11-29T03:07:20.307Z,0
2016-11-29T03:08:20.366Z,0
2016-11-29T03:09:20.416Z,0
2016-11-29T03:10:20.484Z,0
2016-11-29T03:11:20.514Z,0
2016-11-29T03:12:20.585Z,0
2016-11-29T03:13:20.627Z,0
2016-11-29T03:14:20.696Z,0
2016-11-29T03:15:20.759Z,0
2016-11-29T03:16:20.809Z,0
2016-11-29T03:17:20.882Z,0
2016-11-29T03:18:20.942Z,0
2016-11-29T03:19:20.990Z,0
2016-11-29T03:20:21.032Z,0
2016-11-29T03:21:21.107Z,0
2016-11-29T03:22:21.125Z,0
2016-11-29T03:23:21.213Z,0
2016-11-29T03:24:21.255Z,0
2016-11-29T03:25:21.345Z,0
2016-11-29T03:26:21.340Z,0
2016-11-29T03:27:21.425Z,0
2016-11-29T03:28:21.486Z,0
2016-11-29T03:29:21.547Z,0
2016-11-29T03:30:21.598Z,0
2016-11-29T03:31:21.649Z,0
2016-11-29T03:32:21.697Z,0
2016-11-29T03:33:21.765Z,0
2016-11-29T03:34:21.827Z,0
2016-11-29T03:35:21.857Z,0
2016-11-29T03:36:21.937Z,0
2016-11-29T03:37:21.963Z,0
2016-11-29T03:38:22.010Z,0
2016-11-29T03:39:22.073Z,0
2016-11-29T03:40:22.176Z,0
2016-11-29T03:41:22.198Z,0
2016-11-29T03:42:22.259Z,0
2016-11-29T03:43:22.283Z,0
2016-11-29T03:44:22.354Z,0
2016-11-29T03:45:22.442Z,0
2016-11-29T03:46:22.462Z,0
2016-11-29T03:47:22.546Z,0
2016-11-29T03:48:22.584Z,0
2016-11-29T03:49:22.655Z,0
2016-11-29T03:50:22.702Z,0
2016-11-29T03:51:22.754Z,0
2016-11-29T03:52:22.809Z,0
2016-11-29T03:53:22.885Z,0
2016-11-29T03:54:22.922Z,0
2016-11-29T03:55:23.298Z,0
2016-11-29T03:56:23.027Z,0
2016-11-29T03:57:23.080Z,0
2016-11-29T03:58:23.114Z,0
2016-11-29T03:59:23.218Z,0
2016-11-29T04:00:23.260Z,0
2016-11-29T04:01:23.300Z,0
2016-11-29T04:02:23.371Z,0
2016-11-29T04:03:23.426Z,0
2016-11-29T04:04:23.477Z,0
2016-11-29T04:05:23.518Z,0
2016-11-29T04:06:23.596Z,0
2016-11-29T04:07:23.641Z,0
2016-11-29T04:08:23.668Z,0
2016-11-29T04:09:23.739Z,0
2016-11-29T04:10:23.792Z,0
2016-11-29T04:11:23.850Z,0
2016-11-29T04:12:23.917Z,0
2016-11-29T04:13:23.981Z,0
2016-11-29T04:14:24.021Z,0
2016-11-29T04:15:24.071Z,0
2016-11-29T04:16:24.121Z,0
2016-11-29T04:17:24.188Z,0
2016-11-29T04:18:24.223Z,0
2016-11-29T04:19:24.309Z,0
2016-11-29T04:20:24.655Z,0
2016-11-29T04:21:24.390Z,0
2016-11-29T04:22:24.447Z,0
2016-11-29T04:23:24.503Z,0
2016-11-29T04:24:24.559Z,0
2016-11-29T04:25:24.611Z,0
2016-11-29T04:26:24.666Z,0
2016-11-29T04:27:24.725Z,0
2016-11-29T04:28:24.782Z,0
2016-11-29T04:29:24.835Z,0
2016-11-29T04:30:24.889Z,0
2016-11-29T04:31:24.951Z,0
2016-11-29T04:32:25.039Z,0
2016-11-29T04:33:25.059Z,0
2016-11-29T04:34:25.118Z,0
2016-11-29T04:35:25.168Z,0
2016-11-29T04:36:25.227Z,0
2016-11-29T04:37:25.277Z,0
2016-11-29T04:38:25.338Z,0
2016-11-29T04:39:25.394Z,0
2016-11-29T04:40:25.447Z,0
2016-11-29T04:41:25.511Z,0
2016-11-29T04:42:25.561Z,0
2016-11-29T04:43:25.613Z,0
2016-11-29T04:44:25.672Z,0
2016-11-29T04:45:25.726Z,0
2016-11-29T04:46:25.780Z,0
2016-11-29T04:47:25.840Z,0
2016-11-29T04:48:25.888Z,0
2016-11-29T04:49:26.151Z,0
2016-11-29T04:50:26.002Z,0
2016-11-29T04:51:26.060Z,0
2016-11-29T04:52:26.112Z,0
2016-11-29T04:53:26.173Z,0
2016-11-29T04:54:26.224Z,0
2016-11-29T04:55:26.284Z,0
2016-11-29T04:56:26.338Z,0
2016-11-29T04:57:26.400Z,0
2016-11-29T04:58:26.452Z,0
2016-11-29T04:59:26.809Z,0
2016-11-29T05:00:26.567Z,0
2016-11-29T05:01:26.613Z,0
2016-11-29T05:02:26.670Z,0
2016-11-29T05:03:26.727Z,0
2016-11-29T05:04:26.786Z,0
2016-11-29T05:05:26.838Z,0
2016-11-29T05:06:26.890Z,0
2016-11-29T05:07:26.948Z,0
2016-11-29T05:08:27.003Z,0
2016-11-29T05:09:27.061Z,0
2016-11-29T05:10:27.117Z,0
2016-11-29T05:11:27.171Z,0
2016-11-29T05:12:27.231Z,0
2016-11-29T05:13:27.283Z,0
2016-11-29T05:14:27.343Z,0
2016-11-29T05:15:27.399Z,0
2016-11-29T05:16:27.454Z,0
2016-11-29T05:17:27.507Z,0
2016-11-29T05:18:27.562Z,0
2016-11-29T05:19:27.615Z,0
2016-11-29T05:20:27.674Z,0
2016-11-29T05:21:27.729Z,0
2016-11-29T05:22:27.787Z,0
2016-11-29T05:23:27.842Z,0
2016-11-29T05:24:27.902Z,0
2016-11-29T05:25:27.953Z,0
2016-11-29T05:26:28.006Z,0
2016-11-29T05:27:28.072Z,0
2016-11-29T05:28:28.120Z,0
2016-11-29T05:29:28.176Z,0
2016-11-29T05:30:28.231Z,0
2016-11-29T05:31:28.281Z,0
2016-11-29T05:32:28.341Z,0
2016-11-29T05:33:28.399Z,0
2016-11-29T05:34:28.453Z,0
2016-11-29T05:35:28.505Z,0
2016-11-29T05:36:28.567Z,0
2016-11-29T05:37:28.636Z,0
2016-11-29T05:38:28.679Z,0
2016-11-29T05:39:28.731Z,0
2016-11-29T05:40:28.784Z,0
2016-11-29T05:41:28.915Z,0
2016-11-29T05:42:28.926Z,0
2016-11-29T05:43:28.982Z,0
2016-11-29T05:44:29.043Z,0
2016-11-29T05:45:29.101Z,0
2016-11-29T05:46:29.139Z,0
2016-11-29T05:47:29.183Z,0
2016-11-29T05:48:29.241Z,0
2016-11-29T05:49:29.520Z,0
2016-11-29T05:50:29.355Z,0
2016-11-29T05:51:29.428Z,0
2016-11-29T05:52:29.472Z,0
2016-11-29T05:53:29.518Z,0
2016-11-29T05:54:29.601Z,0
2016-11-29T05:55:29.629Z,0
2016-11-29T05:56:29.705Z,0
2016-11-29T05:57:29.756Z,0
2016-11-29T05:58:29.823Z,0
2016-11-29T05:59:29.868Z,0
2016-11-29T06:00:29.921Z,0
2016-11-29T06:01:29.952Z,0
2016-11-29T06:02:30.008Z,0
2016-11-29T06:03:30.097Z,0
2016-11-29T06:04:30.133Z,0
2016-11-29T06:05:30.180Z,0
2016-11-29T06:06:30.239Z,0
2016-11-29T06:07:30.338Z,0
2016-11-29T06:08:30.368Z,0
2016-11-29T06:09:30.717Z,0
2016-11-29T06:10:30.464Z,0
2016-11-29T06:11:30.516Z,0
2016-11-29T06:12:30.588Z,0
2016-11-29T06:13:30.639Z,0
2016-11-29T06:14:30.702Z,0
2016-11-29T06:15:30.727Z,0
2016-11-29T06:16:30.980Z,0
2016-11-29T06:17:30.858Z,0
2016-11-29T06:18:45.845Z,0
2016-11-29T06:19:30.978Z,0
2016-11-29T06:20:31.039Z,0
2016-11-29T06:21:31.095Z,0
2016-11-29T06:22:31.148Z,0
2016-11-29T06:23:31.206Z,0
2016-11-29T06:24:31.239Z,0
2016-11-29T06:25:31.304Z,0
2016-11-29T06:26:31.375Z,0
2016-11-29T06:27:31.424Z,0
2016-11-29T06:28:31.488Z,0
2016-11-29T06:29:31.526Z,0
2016-11-29T06:30:31.574Z,0
2016-11-29T06:31:31.642Z,0
2016-11-29T06:32:31.711Z,0
2016-11-29T06:33:31.764Z,0
2016-11-29T06:34:31.806Z,0
2016-11-29T06:35:31.869Z,0
2016-11-29T06:36:32.201Z,0
2016-11-29T06:37:31.999Z,0
2016-11-29T06:38:32.025Z,0
2016-11-29T06:39:32.086Z,0
2016-11-29T06:40:32.164Z,0
2016-11-29T06:41:32.192Z,0
2016-11-29T06:42:32.305Z,0
2016-11-29T06:43:32.508Z,0
2016-11-29T06:44:32.562Z,0
2016-11-29T06:45:32.408Z,0
2016-11-29T06:46:32.467Z,0
2016-11-29T06:47:32.520Z,0
2016-11-29T06:48:32.625Z,0
2016-11-29T06:49:32.640Z,0
2016-11-29T06:50:32.705Z,0
2016-11-29T06:51:32.776Z,0
2016-11-29T06:52:32.805Z,0
2016-11-29T06:53:32.868Z,0
2016-11-29T06:54:32.936Z,0
2016-11-29T06:55:32.965Z,0
2016-11-29T06:56:33.037Z,0
2016-11-29T06:57:33.084Z,0
2016-11-29T06:58:33.121Z,0
2016-11-29T06:59:33.194Z,0
2016-11-29T07:00:33.278Z,5
2016-11-29T07:01:33.318Z,5
2016-11-29T07:02:33.378Z,5
2016-11-29T07:03:33.416Z,5
2016-11-29T07:04:33.469Z,5
2016-11-29T07:05:33.526Z,5
2016-11-29T07:06:33.571Z,5
2016-11-29T07:07:33.658Z,5
2016-11-29T07:08:33.685Z,5
2016-11-29T07:09:33.768Z,5
2016-11-29T07:10:34.001Z,5
2016-11-29T07:11:34.084Z,5
2016-11-29T07:12:34.155Z,5
2016-11-29T07:13:33.971Z,5
2016-11-29T07:14:34.036Z,5
2016-11-29T07:15:34.071Z,5
2016-11-29T07:16:34.158Z,5
2016-11-29T07:17:34.199Z,5
2016-11-29T07:18:34.269Z,5
2016-11-29T07:19:34.316Z,5
2016-11-29T07:20:34.375Z,5
2016-11-29T07:21:34.448Z,5
2016-11-29T07:22:34.515Z,5
2016-11-29T07:23:34.842Z,10
2016-11-29T07:24:34.608Z,10
2016-11-29T07:25:34.660Z,10
2016-11-29T07:26:34.697Z,10
2016-11-29T07:27:34.763Z,10
2016-11-29T07:28:34.802Z,10
2016-11-29T07:29:34.886Z,10
2016-11-29T07:30:34.906Z,10
2016-11-29T07:31:34.991Z,10
2016-11-29T07:32:35.038Z,10
2016-11-29T07:33:35.094Z,10
2016-11-29T07:34:35.173Z,10
2016-11-29T07:35:35.214Z,10
2016-11-29T07:36:35.261Z,10
2016-11-29T07:37:35.329Z,10
2016-11-29T07:38:35.600Z,10
2016-11-29T07:39:35.430Z,10
2016-11-29T07:40:35.672Z,10
2016-11-29T07:41:35.560Z,10
2016-11-29T07:42:35.610Z,10
2016-11-29T07:43:35.643Z,10
2016-11-29T07:44:35.747Z,10
2016-11-29T07:45:35.795Z,10
2016-11-29T07:46:35.832Z,15
2016-11-29T07:47:35.861Z,15
2016-11-29T07:48:35.938Z,15
2016-11-29T07:49:35.975Z,15
2016-11-29T07:50:36.072Z,15
2016-11-29T07:51:36.429Z,15
2016-11-29T07:52:36.179Z,15
2016-11-29T07:53:36.225Z,15
2016-11-29T07:54:36.275Z,15
2016-11-29T07:55:36.342Z,15
2016-11-29T07:56:36.391Z,15
2016-11-29T07:57:36.459Z,15
2016-11-29T07:58:36.507Z,15
2016-11-29T07:59:36.584Z,15
2016-11-29T08:00:36.616Z,15
2016-11-29T08:01:36.671Z,15
2016-11-29T08:02:36.756Z,15
2016-11-29T08:03:36.788Z,15
2016-11-29T08:04:36.848Z,15
2016-11-29T08:05:37.205Z,15
2016-11-29T08:06:37.178Z,15
2016-11-29T08:07:37.010Z,15
2016-11-29T08:08:37.270Z,15
2016-11-29T08:09:37.144Z,15
2016-11-29T08:10:37.174Z,15
2016-11-29T08:11:37.252Z,20
2016-11-29T08:12:37.271Z,20
2016-11-29T08:13:37.326Z,20
2016-11-29T08:14:37.400Z,20
2016-11-29T08:15:37.458Z,20
2016-11-29T08:16:37.516Z,20
2016-11-29T08:17:37.574Z,20
2016-11-29T08:18:37.659Z,20
2016-11-29T08:19:37.687Z,20
2016-11-29T08:20:37.755Z,20
2016-11-29T08:21:37.801Z,20
2016-11-29T08:22:37.875Z,20
2016-11-29T08:23:37.921Z,20
2016-11-29T08:24:37.959Z,20
2016-11-29T08:25:38.352Z,20
2016-11-29T08:26:38.059Z,20
2016-11-29T08:27:38.452Z,20
2016-11-29T08:28:38.190Z,20
2016-11-29T08:29:38.242Z,20
2016-11-29T08:30:38.317Z,20
2016-11-29T08:31:38.376Z,20
2016-11-29T08:32:38.434Z,20
2016-11-29T08:33:38.467Z,20
2016-11-29T08:34:38.542Z,20
2016-11-29T08:35:38.792Z,20
2016-11-29T08:36:38.626Z,20
2016-11-29T08:37:38.722Z,20
2016-11-29T08:38:38.772Z,20
2016-11-29T08:39:39.088Z,20
2016-11-29T08:40:38.851Z,20
2016-11-29T08:41:38.928Z,20
2016-11-29T08:42:38.981Z,20
2016-11-29T08:43:39.031Z,20
2016-11-29T08:44:39.077Z,20
2016-11-29T08:45:39.164Z,20
2016-11-29T08:46:39.218Z,20
2016-11-29T08:47:39.278Z,20
2016-11-29T08:48:39.353Z,20
2016-11-29T08:49:39.379Z,20
2016-11-29T08:50:39.410Z,20
2016-11-29T08:51:39.486Z,25
2016-11-29T08:52:39.532Z,25
2016-11-29T08:53:39.611Z,25
2016-11-29T08:54:39.646Z,25
2016-11-29T08:55:39.736Z,25
2016-11-29T08:56:39.792Z,25
2016-11-29T08:57:39.808Z,25
2016-11-29T08:58:39.909Z,25
2016-11-29T08:59:40.113Z,25
2016-11-29T09:00:40.010Z,25
2016-11-29T09:01:40.039Z,25
2016-11-29T09:02:40.109Z,25
2016-11-29T09:03:40.486Z,25
2016-11-29T09:04:40.250Z,25
2016-11-29T09:05:40.275Z,25
2016-11-29T09:06:40.337Z,25
2016-11-29T09:07:40.410Z,25
2016-11-29T09:08:40.459Z,25
2016-11-29T09:09:40.507Z,25
2016-11-29T09:10:40.576Z,25
2016-11-29T09:11:40.643Z,25
2016-11-29T09:12:40.679Z,25
2016-11-29T09:13:40.731Z,25
2016-11-29T09:14:40.796Z,25
2016-11-29T09:15:40.852Z,25
2016-11-29T09:16:40.917Z,25
2016-11-29T09:17:40.974Z,25
2016-11-29T09:18:41.046Z,25
2016-11-29T09:19:41.094Z,25
2016-11-29T09:20:41.134Z,25
2016-11-29T09:21:41.189Z,25
2016-11-29T09:22:41.265Z,25
2016-11-29T09:23:41.301Z,25
2016-11-29T09:24:41.358Z,25
2016-11-29T09:25:41.421Z,25
2016-11-29T09:26:41.483Z,25
2016-11-29T09:27:41.528Z,25
2016-11-29T09:28:41.596Z,25
2016-11-29T09:29:41.624Z,25
2016-11-29T09:30:41.719Z,25
2016-11-29T09:31:41.772Z,25
2016-11-29T09:32:41.801Z,25
2016-11-29T09:33:41.881Z,25
2016-11-29T09:34:41.951Z,25
2016-11-29T09:35:41.997Z,25
2016-11-29T09:36:42.058Z,25
2016-11-29T09:37:42.084Z,25
2016-11-29T09:38:42.130Z,25
2016-11-29T09:39:42.199Z,25
2016-11-29T09:40:42.306Z,25
2016-11-29T09:41:42.306Z,25
2016-11-29T09:42:42.697Z,25
2016-11-29T09:43:42.410Z,25
2016-11-29T09:44:42.481Z,30
2016-11-29T09:45:42.529Z,30
2016-11-29T09:46:42.593Z,30
2016-11-29T09:47:42.675Z,30
2016-11-29T09:48:42.716Z,30
2016-11-29T09:49:42.765Z,30
2016-11-29T09:50:42.828Z,30
2016-11-29T09:51:42.893Z,30
2016-11-29T09:52:42.923Z,30
2016-11-29T09:53:43.006Z,30
2016-11-29T09:54:43.054Z,30
2016-11-29T09:55:43.090Z,30
2016-11-29T09:56:43.192Z,30
2016-11-29T09:57:43.251Z,30
2016-11-29T09:58:43.281Z,30
2016-11-29T09:59:43.382Z,30
2016-11-29T10:00:43.375Z,30
2016-11-29T10:01:43.460Z,30
2016-11-29T10:02:43.523Z,30
2016-11-29T10:03:43.583Z,30
2016-11-29T10:04:43.639Z,30
2016-11-29T10:05:43.662Z,30
2016-11-29T10:06:43.740Z,30
2016-11-29T10:07:43.804Z,30
2016-11-29T10:08:43.849Z,30
2016-11-29T10:09:43.921Z,30
2016-11-29T10:10:43.983Z,30
2016-11-29T10:11:44.050Z,30
2016-11-29T10:12:44.104Z,30
2016-11-29T10:13:44.158Z,30
2016-11-29T10:14:44.217Z,30
2016-11-29T10:15:44.243Z,35
2016-11-29T10:16:44.323Z,35
2016-11-29T10:17:44.371Z,35
2016-11-29T10:18:44.420Z,35
2016-11-29T10:19:44.463Z,35
2016-11-29T10:20:44.554Z,35
2016-11-29T10:21:44.630Z,35
2016-11-29T10:22:44.692Z,35
2016-11-29T10:23:44.730Z,35
2016-11-29T10:24:44.789Z,35
2016-11-29T10:25:44.830Z,35
2016-11-29T10:26:44.895Z,35
2016-11-29T10:27:44.940Z,35
2016-11-29T10:28:44.989Z,35
2016-11-29T10:29:45.042Z,35
2016-11-29T10:30:45.100Z,35
2016-11-29T10:31:45.167Z,35
2016-11-29T10:32:45.241Z,35
2016-11-29T10:33:45.297Z,35
2016-11-29T10:34:45.391Z,35
2016-11-29T10:35:45.430Z,35
2016-11-29T10:36:45.472Z,35
2016-11-29T10:37:45.562Z,35
2016-11-29T10:38:45.872Z,35
2016-11-29T10:39:45.637Z,35
2016-11-29T10:40:45.695Z,35
2016-11-29T10:41:45.783Z,35
2016-11-29T10:42:45.806Z,35
2016-11-29T10:43:45.870Z,35
2016-11-29T10:44:45.928Z,35
2016-11-29T10:45:45.976Z,35
2016-11-29T10:46:46.053Z,35
2016-11-29T10:47:46.110Z,35
2016-11-29T10:48:46.161Z,35
2016-11-29T10:49:46.210Z,35
2016-11-29T10:50:46.289Z,35
2016-11-29T10:51:46.326Z,35
2016-11-29T10:52:46.411Z,35
2016-11-29T10:53:46.746Z,35
2016-11-29T10:54:46.490Z,35
2016-11-29T10:55:46.535Z,35
2016-11-29T10:56:46.647Z,35
2016-11-29T10:57:46.655Z,35
2016-11-29T10:58:46.716Z,35
2016-11-29T10:59:46.816Z,35
2016-11-29T11:00:46.834Z,35
2016-11-29T11:01:46.939Z,35
2016-11-29T11:02:46.974Z,35
2016-11-29T11:03:47.030Z,35
2016-11-29T11:04:47.066Z,35
2016-11-29T11:05:47.163Z,35
2016-11-29T11:06:47.206Z,35
2016-11-29T11:07:47.255Z,35
2016-11-29T11:08:47.327Z,35
2016-11-29T11:09:47.344Z,35
2016-11-29T11:10:47.423Z,35
2016-11-29T11:11:47.489Z,35
2016-11-29T11:12:47.554Z,35
2016-11-29T11:13:47.592Z,35
2016-11-29T11:14:47.653Z,35
2016-11-29T11:15:47.724Z,35
2016-11-29T11:16:47.776Z,35
2016-11-29T11:17:47.853Z,35
2016-11-29T11:18:47.910Z,35
2016-11-29T11:19:47.931Z,35
2016-11-29T11:20:48.015Z,35
2016-11-29T11:21:48.073Z,35
2016-11-29T11:22:48.119Z,35
2016-11-29T11:23:48.186Z,40
2016-11-29T11:24:48.243Z,40
2016-11-29T11:25:48.314Z,40
2016-11-29T11:26:48.350Z,40
2016-11-29T11:27:48.412Z,40
2016-11-29T11:28:48.487Z,40
2016-11-29T11:29:48.499Z,40
2016-11-29T11:30:48.575Z,40
2016-11-29T11:31:48.648Z,40
2016-11-29T11:32:48.713Z,40
2016-11-29T11:33:48.741Z,40
2016-11-29T11:34:48.819Z,40
2016-11-29T11:35:48.863Z,40
2016-11-29T11:36:48.909Z,35
2016-11-29T11:37:48.961Z,40
2016-11-29T11:38:49.036Z,35
2016-11-29T11:39:49.106Z,35
2016-11-29T11:40:49.137Z,35
2016-11-29T11:41:49.236Z,40
2016-11-29T11:42:49.264Z,40
2016-11-29T11:43:49.345Z,40
2016-11-29T11:44:49.401Z,40
2016-11-29T11:45:49.452Z,40
2016-11-29T11:46:49.484Z,40
2016-11-29T11:47:49.567Z,40
2016-11-29T11:48:49.630Z,40
2016-11-29T11:49:49.668Z,40
2016-11-29T11:50:49.721Z,40
2016-11-29T11:51:49.791Z,40
2016-11-29T11:52:50.206Z,40
2016-11-29T11:53:49.921Z,40
2016-11-29T11:54:49.980Z,40
2016-11-29T11:55:50.059Z,40
2016-11-29T11:56:50.094Z,40
2016-11-29T11:57:50.145Z,40
2016-11-29T11:58:50.210Z,40
2016-11-29T11:59:50.579Z,40
2016-11-29T12:00:50.642Z,40
2016-11-29T12:01:50.411Z,40
2016-11-29T12:02:50.454Z,40
2016-11-29T12:03:50.532Z,40
2016-11-29T12:04:50.554Z,40
2016-11-29T12:05:50.622Z,40
2016-11-29T12:06:50.680Z,40
2016-11-29T12:07:50.735Z,40
2016-11-29T12:08:50.789Z,40
2016-11-29T12:09:50.855Z,40
2016-11-29T12:10:50.937Z,40
2016-11-29T12:11:50.990Z,40
2016-11-29T12:12:51.064Z,40
2016-11-29T12:13:51.088Z,40
2016-11-29T12:14:51.165Z,40
2016-11-29T12:15:51.237Z,40
2016-11-29T12:16:51.256Z,40
2016-11-29T12:17:51.328Z,40
2016-11-29T12:18:51.395Z,40
2016-11-29T12:19:51.444Z,40
2016-11-29T12:20:51.541Z,40
2016-11-29T12:21:51.559Z,40
2016-11-29T12:22:51.617Z,40
2016-11-29T12:23:51.729Z,40
2016-11-29T12:24:51.769Z,40
2016-11-29T12:25:51.781Z,40
2016-11-29T12:26:51.865Z,40
2016-11-29T12:27:51.953Z,40
2016-11-29T12:28:51.982Z,40
2016-11-29T12:29:52.031Z,40
2016-11-29T12:30:52.110Z,40
2016-11-29T12:31:52.206Z,40
2016-11-29T12:32:52.196Z,40
2016-11-29T12:33:52.602Z,40
2016-11-29T12:34:52.327Z,40
2016-11-29T12:35:52.392Z,40
2016-11-29T12:36:52.448Z,40
2016-11-29T12:37:52.500Z,40
2016-11-29T12:38:52.575Z,40
2016-11-29T12:39:52.617Z,40
2016-11-29T12:40:52.679Z,40
2016-11-29T12:41:52.749Z,40
2016-11-29T12:42:52.807Z,40
2016-11-29T12:43:52.914Z,40
2016-11-29T12:44:52.946Z,40
2016-11-29T12:45:53.010Z,40
2016-11-29T12:46:53.057Z,35
2016-11-29T12:47:53.108Z,35
2016-11-29T12:48:53.164Z,35
2016-11-29T12:49:53.192Z,35
2016-11-29T12:50:53.278Z,35
2016-11-29T12:51:53.346Z,35
2016-11-29T12:52:53.403Z,35
2016-11-29T12:53:53.448Z,35
2016-11-29T12:54:53.487Z,35
2016-11-29T12:55:53.572Z,35
2016-11-29T12:56:53.640Z,35
2016-11-29T12:57:53.681Z,35
2016-11-29T12:58:53.740Z,35
2016-11-29T12:59:53.781Z,35
2016-11-29T13:00:53.862Z,35
2016-11-29T13:01:53.922Z,35
2016-11-29T13:02:53.987Z,30
2016-11-29T13:03:54.037Z,30
2016-11-29T13:04:54.081Z,30
2016-11-29T13:05:54.157Z,30
2016-11-29T13:06:54.217Z,30
2016-11-29T13:07:54.269Z,30
2016-11-29T13:08:54.338Z,30
2016-11-29T13:09:54.397Z,30
2016-11-29T13:10:54.439Z,30
2016-11-29T13:11:54.832Z,30
2016-11-29T13:12:54.559Z,30
2016-11-29T13:13:54.615Z,30
2016-11-29T13:14:54.675Z,30
2016-11-29T13:15:54.756Z,30
2016-11-29T13:16:54.812Z,30
2016-11-29T13:17:54.843Z,30
2016-11-29T13:18:54.922Z,30
2016-11-29T13:19:54.959Z,30
2016-11-29T13:20:55.039Z,25
2016-11-29T13:21:55.097Z,25
2016-11-29T13:22:55.149Z,25
2016-11-29T13:23:55.215Z,25
2016-11-29T13:24:55.248Z,25
2016-11-29T13:25:55.313Z,25
2016-11-29T13:26:55.360Z,25
2016-11-29T13:27:55.428Z,25
2016-11-29T13:28:55.508Z,25
2016-11-29T13:29:55.551Z,25
2016-11-29T13:30:55.621Z,25
2016-11-29T13:31:55.652Z,25
2016-11-29T13:32:55.737Z,25
2016-11-29T13:33:55.784Z,25
2016-11-29T13:34:55.871Z,25
2016-11-29T13:35:55.916Z,25
2016-11-29T13:36:55.963Z,25
2016-11-29T13:37:56.028Z,25
2016-11-29T13:38:56.084Z,25
2016-11-29T13:39:56.123Z,25
2016-11-29T13:40:56.249Z,25
2016-11-29T13:41:56.267Z,25
2016-11-29T13:42:56.315Z,25
2016-11-29T13:43:56.380Z,25
2016-11-29T13:44:56.467Z,25
2016-11-29T13:45:56.477Z,25
2016-11-29T13:46:56.570Z,25
2016-11-29T13:47:56.614Z,25
2016-11-29T13:48:56.690Z,25
2016-11-29T13:49:56.745Z,25
2016-11-29T13:50:56.800Z,25
2016-11-29T13:51:56.829Z,25
2016-11-29T13:52:56.925Z,25
2016-11-29T13:53:56.978Z,25
2016-11-29T13:54:57.391Z,25
2016-11-29T13:55:57.093Z,20
2016-11-29T13:56:57.158Z,20
2016-11-29T13:57:57.230Z,20
2016-11-29T13:58:57.285Z,15
2016-11-29T13:59:57.351Z,10
2016-11-29T14:00:57.388Z,5
2016-11-29T14:01:57.445Z,5
2016-11-29T14:02:57.514Z,5
2016-11-29T14:03:57.568Z,5
2016-11-29T14:04:57.615Z,5
2016-11-29T14:05:57.692Z,5
2016-11-29T14:06:57.743Z,5
2016-11-29T14:07:57.768Z,5
2016-11-29T14:08:57.857Z,5
2016-11-29T14:09:57.922Z,5
2016-11-29T14:10:57.979Z,5
2016-11-29T14:11:58.027Z,5
2016-11-29T14:12:58.096Z,5
2016-11-29T14:13:58.136Z,5
2016-11-29T14:14:58.193Z,5
2016-11-29T14:15:58.280Z,5
2016-11-29T14:16:58.321Z,5
2016-11-29T14:17:58.365Z,5
2016-11-29T14:18:58.458Z,5
2016-11-29T14:19:58.479Z,5
2016-11-29T14:20:58.582Z,5
2016-11-29T14:21:58.923Z,5
2016-11-29T14:22:58.671Z,5
2016-11-29T14:23:58.726Z,5
2016-11-29T14:24:58.784Z,5
2016-11-29T14:25:58.851Z,5
2016-11-29T14:26:58.915Z,5
2016-11-29T14:27:58.978Z,5
2016-11-29T14:28:59.024Z,5
2016-11-29T14:29:59.099Z,5
2016-11-29T14:30:59.449Z,5
2016-11-29T14:31:59.221Z,5
2016-11-29T14:32:59.242Z,5